Time;durP1;ratioP1;P1;durP2;ratioP2;P2;SDS_P1;SDS_P2;PMS_P1;PMS_P2;Temp;Humidity;BMP_temperature;BMP_pressure;BME280_temperature;BME280_humidity;BME280_pressure;Samples;Min_cycle;Max_cycle;Signal;HPM_P1;HPM_P2
2020/12/03 00:02:00;;;;;;;42.23;25.63;;;1.50;99.90;;;;;;5073883;28;20451;-69
2020/12/03 00:04:27;;;;;;;46.38;28.55;;;1.50;99.90;;;;;;5073213;28;20968;-69
2020/12/03 00:06:57;;;;;;;41.60;28.00;;;1.40;99.90;;;;;;5073958;28;20211;-68
2020/12/03 00:09:24;;;;;;;46.50;24.37;;;1.40;99.90;;;;;;5074004;28;20424;-69
2020/12/03 00:11:53;;;;;;;44.50;27.77;;;1.40;99.90;;;;;;5073593;28;20524;-69
2020/12/03 00:14:20;;;;;;;44.00;25.57;;;1.40;99.90;;;;;;5073924;28;20431;-69
2020/12/03 00:16:48;;;;;;;41.00;25.33;;;1.40;99.90;;;;;;5073733;28;20924;-69
2020/12/03 00:19:16;;;;;;;44.43;25.13;;;1.40;99.90;;;;;;5074044;28;20432;-69
2020/12/03 00:21:45;;;;;;;48.57;28.53;;;1.30;99.90;;;;;;5073402;28;20791;-69
2020/12/03 00:24:15;;;;;;;41.57;25.77;;;1.30;99.90;;;;;;5073634;28;20435;-69
2020/12/03 00:26:41;;;;;;;47.57;27.50;;;1.40;99.90;;;;;;5073793;28;20772;-69
2020/12/03 00:29:09;;;;;;;46.60;26.77;;;1.30;99.90;;;;;;5073804;28;20501;-69
2020/12/03 00:31:36;;;;;;;45.37;25.83;;;1.50;99.90;;;;;;5073507;28;20862;-69
2020/12/03 00:34:04;;;;;;;46.30;26.43;;;1.50;99.90;;;;;;5074061;28;20466;-69
2020/12/03 00:36:31;;;;;;;43.47;26.20;;;1.50;99.90;;;;;;5073331;28;20617;-69
2020/12/03 00:38:57;;;;;;;44.40;24.93;;;1.40;99.90;;;;;;5072896;28;20481;-69
2020/12/03 00:41:24;;;;;;;42.63;24.17;;;1.30;99.90;;;;;;5073181;28;20500;-69
2020/12/03 00:43:51;;;;;;;47.90;25.47;;;1.30;99.90;;;;;;5073478;28;20477;-69
2020/12/03 00:46:18;;;;;;;45.13;26.47;;;1.30;99.90;;;;;;5073681;28;20444;-69
2020/12/03 00:48:45;;;;;;;44.10;26.73;;;1.40;99.90;;;;;;5073693;28;20427;-69
2020/12/03 00:51:12;;;;;;;47.17;27.00;;;1.30;99.90;;;;;;5073370;28;20447;-69
2020/12/03 00:53:40;;;;;;;38.53;24.53;;;1.30;99.90;;;;;;5072933;28;20991;-69
2020/12/03 00:56:07;;;;;;;45.50;26.87;;;1.40;99.90;;;;;;5072795;28;20449;-69
2020/12/03 00:58:33;;;;;;;45.53;26.20;;;1.30;99.90;;;;;;5072602;28;20489;-69
2020/12/03 01:01:00;;;;;;;44.00;25.80;;;1.30;99.90;;;;;;5072543;28;20439;-69
2020/12/03 01:03:28;;;;;;;40.87;23.27;;;1.40;99.90;;;;;;5073024;28;20492;-69
2020/12/03 01:05:54;;;;;;;41.33;24.87;;;1.30;99.90;;;;;;5072747;28;20424;-69
2020/12/03 01:08:21;;;;;;;42.13;25.33;;;1.40;99.90;;;;;;5073182;28;20481;-69
2020/12/03 01:10:47;;;;;;;44.47;28.17;;;1.40;99.90;;;;;;5073313;28;20916;-69
2020/12/03 01:13:14;;;;;;;42.90;25.30;;;1.50;99.90;;;;;;5074215;28;20889;-68
2020/12/03 01:15:42;;;;;;;45.17;26.33;;;1.50;99.90;;;;;;5073560;28;20438;-69
2020/12/03 01:18:08;;;;;;;46.63;27.33;;;1.40;99.90;;;;;;5073072;28;20439;-69
2020/12/03 01:20:36;;;;;;;43.63;25.00;;;1.40;99.90;;;;;;5072888;28;20798;-69
2020/12/03 01:23:03;;;;;;;44.40;24.50;;;1.40;99.90;;;;;;5073089;28;20459;-69
2020/12/03 01:25:30;;;;;;;45.20;26.90;;;1.40;99.90;;;;;;5072862;28;20431;-69
2020/12/03 01:27:57;;;;;;;44.43;24.83;;;1.40;99.90;;;;;;5072353;28;20991;-69
2020/12/03 01:30:24;;;;;;;47.90;33.25;;;1.40;99.90;;;;;;5071026;28;20903;-69
2020/12/03 01:32:51;;;;;;;45.50;27.83;;;1.40;99.90;;;;;;5072323;28;20270;-69
2020/12/03 01:35:21;;;;;;;41.33;25.80;;;1.50;99.90;;;;;;5072240;28;20436;-69
2020/12/03 01:37:50;;;;;;;45.70;24.50;;;1.50;99.90;;;;;;5072193;28;20427;-69
2020/12/03 01:40:20;;;;;;;48.60;26.07;;;1.50;99.90;;;;;;5071738;28;20471;-69
2020/12/03 01:42:46;;;;;;;39.97;25.93;;;1.50;99.90;;;;;;5072175;28;20505;-69
2020/12/03 01:45:59;;;;;;;39.83;24.03;;;1.60;99.90;;;;;;5072093;28;20435;-69
2020/12/03 01:48:47;;;;;;;46.10;25.80;;;1.50;99.90;;;;;;5035700;28;20477;-69
2020/12/03 01:51:23;;;;;;;42.87;24.87;;;1.50;99.90;;;;;;5066314;28;20464;-69
2020/12/03 01:53:52;;;;;;;47.27;27.60;;;1.60;99.90;;;;;;5071970;28;20994;-69
2020/12/03 01:56:44;;;;;;;39.40;25.33;;;1.70;99.90;;;;;;5071926;28;20477;-69
2020/12/03 01:59:13;;;;;;;50.63;28.33;;;1.70;99.90;;;;;;5072082;28;20427;-70
2020/12/03 02:01:40;;;;;;;40.10;24.70;;;1.70;99.90;;;;;;5071586;28;20982;-69
2020/12/03 02:04:07;;;;;;;47.43;26.67;;;1.70;99.90;;;;;;5071947;28;20439;-69
2020/12/03 02:06:35;;;;;;;40.13;25.80;;;1.80;99.90;;;;;;5071855;28;20451;-69
2020/12/03 02:09:07;;;;;;;42.37;26.20;;;1.60;99.90;;;;;;5071905;28;20435;-70
2020/12/03 02:11:34;;;;;;;42.53;23.33;;;1.60;99.90;;;;;;5071191;28;20509;-69
2020/12/03 02:14:03;;;;;;;44.27;26.20;;;1.70;99.90;;;;;;5071701;28;20474;-69
2020/12/03 02:16:32;;;;;;;47.20;25.63;;;1.70;99.90;;;;;;5071868;28;20493;-69
2020/12/03 02:18:58;;;;;;;49.23;27.53;;;1.70;99.90;;;;;;5071755;28;20813;-69
2020/12/03 02:21:26;;;;;;;38.87;26.00;;;1.70;99.90;;;;;;5071506;28;20990;-69
2020/12/03 02:23:52;;;;;;;47.97;28.60;;;1.70;99.90;;;;;;5071670;28;20443;-70
2020/12/03 02:26:19;;;;;;;50.50;27.83;;;1.70;99.90;;;;;;5072289;28;20435;-69
2020/12/03 02:28:46;;;;;;;47.10;27.10;;;1.70;99.90;;;;;;5071689;28;20620;-70
2020/12/03 02:31:13;;;;;;;41.77;26.57;;;1.70;99.90;;;;;;5071524;28;20459;-69
2020/12/03 02:33:40;;;;;;;44.27;26.17;;;1.70;99.90;;;;;;5071446;28;20497;-69
2020/12/03 02:36:06;;;;;;;47.63;27.03;;;1.60;99.90;;;;;;5071852;28;20428;-70
2020/12/03 02:38:34;;;;;;;43.80;27.67;;;1.70;99.90;;;;;;5073572;28;20431;-71
2020/12/03 02:41:02;;;;;;;44.33;28.33;;;1.70;99.90;;;;;;5072759;28;20845;-69
2020/12/03 02:43:29;;;;;;;47.23;25.80;;;1.60;99.90;;;;;;5073132;28;20435;-70
2020/12/03 02:45:55;;;;;;;45.10;25.67;;;1.60;99.90;;;;;;5073345;28;20439;-70
2020/12/03 02:48:22;;;;;;;45.57;25.43;;;1.60;99.90;;;;;;5072561;28;20485;-70
2020/12/03 02:50:48;;;;;;;46.90;26.87;;;1.70;99.90;;;;;;5072981;28;20431;-71
2020/12/03 02:53:15;;;;;;;41.80;25.33;;;1.70;99.90;;;;;;5073646;28;20532;-70
2020/12/03 02:55:42;;;;;;;45.10;25.93;;;1.70;99.90;;;;;;5071801;28;20453;-70
2020/12/03 02:58:09;;;;;;;43.83;27.47;;;1.70;99.90;;;;;;5071191;28;20959;-70
2020/12/03 03:00:36;;;;;;;46.17;26.80;;;1.70;99.90;;;;;;5071245;28;20427;-70
2020/12/03 03:03:02;;;;;;;49.50;24.20;;;1.70;99.90;;;;;;5075303;28;20459;-69
2020/12/03 03:05:29;;;;;;;44.90;24.23;;;1.70;99.90;;;;;;5075622;28;20489;-70
2020/12/03 03:07:55;;;;;;;43.80;24.70;;;1.60;99.90;;;;;;5075680;28;20432;-70
2020/12/03 03:10:22;;;;;;;42.87;25.10;;;1.60;99.90;;;;;;5075698;28;20435;-70
2020/12/03 03:12:49;;;;;;;46.60;25.57;;;1.60;99.90;;;;;;5075237;28;20979;-70
2020/12/03 03:15:17;;;;;;;42.63;26.50;;;1.60;99.90;;;;;;5075220;28;20833;-70
2020/12/03 03:17:44;;;;;;;49.27;27.27;;;1.60;99.90;;;;;;5075357;28;20442;-70
2020/12/03 03:20:11;;;;;;;46.30;26.27;;;1.60;99.90;;;;;;5074839;28;20939;-70
2020/12/03 03:22:40;;;;;;;50.47;30.40;;;1.70;99.90;;;;;;5075366;28;20959;-70
2020/12/03 03:25:07;;;;;;;44.23;25.37;;;1.70;99.90;;;;;;5077242;28;20427;-70
2020/12/03 03:27:34;;;;;;;45.93;26.67;;;1.70;99.90;;;;;;5078679;28;20445;-70
2020/12/03 03:30:01;;;;;;;48.67;27.57;;;1.80;99.90;;;;;;5075861;28;20438;-70
2020/12/03 03:32:28;;;;;;;47.10;27.03;;;1.80;99.90;;;;;;5075754;28;20462;-70
2020/12/03 03:34:54;;;;;;;50.50;26.67;;;1.80;99.90;;;;;;5076701;28;20505;-70
2020/12/03 03:37:21;;;;;;;43.10;26.30;;;1.80;99.90;;;;;;5082747;28;21047;-70
2020/12/03 03:39:47;;;;;;;43.27;26.90;;;1.80;99.90;;;;;;5074645;28;20465;-69
2020/12/03 03:42:14;;;;;;;44.33;26.10;;;1.70;99.90;;;;;;5074265;28;20872;-70
2020/12/03 03:44:40;;;;;;;47.10;27.27;;;1.70;99.90;;;;;;5074534;28;20423;-70
2020/12/03 03:47:08;;;;;;;46.13;25.07;;;1.70;99.90;;;;;;5074556;28;20427;-70
2020/12/03 03:49:34;;;;;;;42.73;27.53;;;1.70;99.90;;;;;;5074498;28;20423;-70
2020/12/03 03:52:01;;;;;;;46.07;27.57;;;1.70;99.90;;;;;;5074665;28;20869;-70
2020/12/03 03:54:28;;;;;;;43.17;26.70;;;1.70;99.90;;;;;;5074423;28;20572;-70
2020/12/03 03:56:54;;;;;;;39.87;25.73;;;1.70;99.90;;;;;;5074305;28;20893;-70
2020/12/03 03:59:21;;;;;;;45.03;27.03;;;1.60;99.90;;;;;;5074348;28;20916;-70
2020/12/03 04:01:47;;;;;;;42.77;27.47;;;1.60;99.90;;;;;;5073786;28;20462;-69
2020/12/03 04:04:15;;;;;;;47.97;26.20;;;1.60;99.90;;;;;;5074256;28;20435;-70
2020/12/03 04:06:41;;;;;;;49.37;30.03;;;1.60;99.90;;;;;;5074579;28;20431;-70
2020/12/03 04:09:08;;;;;;;41.80;26.37;;;1.50;99.90;;;;;;5074237;28;20494;-70
2020/12/03 04:11:34;;;;;;;48.53;28.53;;;1.50;99.90;;;;;;5073592;28;20949;-69
2020/12/03 04:14:01;;;;;;;53.63;27.77;;;1.50;99.90;;;;;;5073086;28;20474;-69
2020/12/03 04:16:27;;;;;;;45.53;25.40;;;1.60;99.90;;;;;;5073990;28;20447;-70
2020/12/03 04:18:54;;;;;;;43.90;28.17;;;1.60;99.90;;;;;;5074111;28;20489;-70
2020/12/03 04:21:21;;;;;;;49.90;27.37;;;1.60;99.90;;;;;;5073667;28;20993;-70
2020/12/03 04:23:48;;;;;;;48.63;27.13;;;1.50;99.90;;;;;;5074184;28;20461;-71
2020/12/03 04:26:14;;;;;;;45.80;25.30;;;1.60;99.90;;;;;;5074688;28;20439;-71
2020/12/03 04:28:41;;;;;;;44.37;26.93;;;1.60;99.90;;;;;;5074619;28;20836;-70
2020/12/03 04:31:08;;;;;;;45.00;26.10;;;1.60;99.90;;;;;;5074221;28;20501;-70
2020/12/03 04:33:35;;;;;;;46.40;25.73;;;1.70;99.90;;;;;;5074603;28;20475;-71
2020/12/03 04:36:03;;;;;;;44.27;25.60;;;1.60;99.90;;;;;;5075004;28;20423;-70
2020/12/03 04:38:30;;;;;;;53.63;29.30;;;1.70;99.90;;;;;;5074684;28;20465;-70
2020/12/03 04:40:58;;;;;;;43.70;24.63;;;1.60;99.90;;;;;;5074759;28;20439;-70
2020/12/03 04:43:32;;;;;;;44.13;26.80;;;1.60;99.90;;;;;;5073830;28;20435;-70
2020/12/03 04:46:05;;;;;;;45.93;27.70;;;1.70;99.90;;;;;;5074094;28;20453;-70
2020/12/03 04:49:04;;;;;;;43.47;25.30;;;1.70;99.90;;;;;;5073656;28;20473;-70
2020/12/03 04:51:49;;;;;;;44.23;25.50;;;1.70;99.90;;;;;;5073449;28;20455;-70
2020/12/03 04:54:26;;;;;;;46.40;28.20;;;1.70;99.90;;;;;;5073707;28;21048;-70
2020/12/03 04:57:02;;;;;;;44.20;28.33;;;1.70;99.90;;;;;;5073619;28;20840;-70
2020/12/03 04:59:46;;;;;;;44.83;26.73;;;1.80;99.90;;;;;;5073689;28;20962;-70
2020/12/03 05:02:37;;;;;;;46.27;27.17;;;1.80;99.90;;;;;;5073158;28;20443;-70
2020/12/03 05:05:21;;;;;;;46.50;27.83;;;1.80;99.90;;;;;;5073521;28;20432;-70
2020/12/03 05:07:54;;;;;;;42.50;26.93;;;1.80;99.90;;;;;;5072438;28;20439;-70
2020/12/03 05:10:26;;;;;;;45.37;27.10;;;1.90;99.90;;;;;;5073403;28;20931;-70
2020/12/03 05:12:55;;;;;;;44.53;24.97;;;1.90;99.90;;;;;;5073292;28;20528;-70
2020/12/03 05:15:25;;;;;;;40.33;24.03;;;1.90;99.90;;;;;;5073575;28;20424;-70
2020/12/03 05:18:09;;;;;;;46.77;26.77;;;1.90;99.90;;;;;;5073197;28;20434;-70
2020/12/03 05:20:41;;;;;;;45.07;27.23;;;1.80;99.90;;;;;;5072962;28;20444;-70
2020/12/03 05:23:14;;;;;;;45.00;26.80;;;1.80;99.90;;;;;;5072776;28;20462;-70
2020/12/03 05:25:42;;;;;;;48.53;27.43;;;1.90;99.90;;;;;;5073136;28;20427;-70
2020/12/03 05:28:42;;;;;;;39.03;25.10;;;1.90;99.90;;;;;;5072572;28;20669;-70
2020/12/03 05:31:15;;;;;;;41.80;26.10;;;1.90;99.90;;;;;;5072837;28;20558;-70
2020/12/03 05:33:43;;;;;;;41.10;25.57;;;1.90;99.90;;;;;;5072816;28;20478;-70
2020/12/03 05:36:27;;;;;;;48.83;27.87;;;1.90;99.90;;;;;;5073178;28;20928;-71
2020/12/03 05:38:55;;;;;;;40.80;26.10;;;1.90;99.90;;;;;;5074536;28;20424;-70
2020/12/03 05:41:25;;;;;;;45.07;27.10;;;1.80;99.90;;;;;;5073470;28;20447;-70
2020/12/03 05:43:52;;;;;;;41.83;26.83;;;1.80;99.90;;;;;;5072878;28;20431;-71
2020/12/03 05:46:22;;;;;;;44.70;27.00;;;1.80;99.90;;;;;;5072540;28;20443;-70
2020/12/03 05:49:03;;;;;;;38.87;24.97;;;1.80;99.90;;;;;;5072853;28;20908;-70
2020/12/03 05:51:33;;;;;;;44.43;29.53;;;1.90;99.90;;;;;;5071816;28;20447;-70
2020/12/03 05:54:04;;;;;;;42.50;24.87;;;1.90;99.90;;;;;;5072826;28;20478;-70
2020/12/03 05:56:32;;;;;;;41.37;26.57;;;1.80;99.90;;;;;;5072740;28;20439;-70
2020/12/03 05:59:18;;;;;;;43.07;26.03;;;1.80;99.90;;;;;;5072903;28;20428;-70
2020/12/03 06:01:58;;;;;;;43.07;25.03;;;1.90;99.90;;;;;;5072493;28;20469;-72
2020/12/03 06:04:33;;;;;;;44.73;27.60;;;1.90;99.90;;;;;;5073028;28;20478;-69
2020/12/03 06:07:38;;;;;;;47.23;25.37;;;1.90;99.90;;;;;;5072764;28;20431;-70
2020/12/03 06:10:25;;;;;;;44.67;26.17;;;2.00;99.90;;;;;;5068097;28;21005;-69
2020/12/03 06:13:27;;;;;;;46.67;26.33;;;2.00;99.90;;;;;;5074305;28;21112;-70
2020/12/03 06:16:00;;;;;;;38.57;24.83;;;2.10;99.90;;;;;;5072070;28;20450;-70
2020/12/03 06:19:06;;;;;;;37.33;22.50;;;2.10;99.90;;;;;;5072744;28;20424;-70
2020/12/03 06:21:57;;;;;;;36.23;23.33;;;2.10;99.90;;;;;;5056244;28;20459;-70
2020/12/03 06:24:54;;;;;;;39.23;24.20;;;2.10;99.90;;;;;;5072734;28;20434;-70
2020/12/03 06:27:49;;;;;;;34.60;21.77;;;2.10;99.90;;;;;;5072168;28;20481;-70
2020/12/03 06:30:23;;;;;;;34.83;21.30;;;2.10;99.90;;;;;;5072105;28;20438;-69
2020/12/03 06:33:29;;;;;;;37.20;22.27;;;2.10;99.90;;;;;;5072838;28;20494;-70
2020/12/03 06:36:01;;;;;;;34.57;20.83;;;2.10;99.90;;;;;;5072848;28;20477;-70
2020/12/03 06:38:34;;;;;;;34.60;21.90;;;2.10;99.90;;;;;;5073448;28;20447;-70
2020/12/03 06:41:19;;;;;;;39.67;22.40;;;2.20;99.90;;;;;;5072722;28;20423;-71
2020/12/03 06:43:50;;;;;;;36.13;21.17;;;2.20;99.90;;;;;;5074031;28;20434;-70
2020/12/03 06:46:50;;;;;;;35.37;21.30;;;2.20;99.90;;;;;;5073352;28;20481;-70
2020/12/03 06:49:44;;;;;;;40.07;24.50;;;2.30;99.90;;;;;;5072123;28;20427;-69
2020/12/03 06:52:36;;;;;;;35.17;22.37;;;2.30;99.90;;;;;;5055558;28;20521;-69
2020/12/03 06:55:31;;;;;;;32.23;20.20;;;2.30;99.90;;;;;;5050629;28;20476;-69
2020/12/03 06:58:23;;;;;;;36.40;22.33;;;2.20;99.90;;;;;;5050677;28;20436;-69
2020/12/03 07:01:30;;;;;;;35.77;21.83;;;2.20;99.90;;;;;;5049233;28;20440;-69
2020/12/03 07:04:32;;;;;;;29.20;18.77;;;2.10;99.90;;;;;;5050256;28;20460;-69
2020/12/03 07:07:34;;;;;;;30.20;18.40;;;2.10;99.90;;;;;;5050597;28;20451;-69
2020/12/03 07:10:46;;;;;;;31.70;18.47;;;2.10;99.90;;;;;;5050250;28;20420;-69
2020/12/03 07:13:45;;;;;;;29.30;19.60;;;2.20;99.90;;;;;;5050162;28;20479;-69
2020/12/03 07:16:48;;;;;;;35.33;21.83;;;2.10;99.90;;;;;;5045914;28;20452;-69
2020/12/03 07:19:45;;;;;;;31.77;20.70;;;2.00;99.90;;;;;;5045790;28;20473;-69
2020/12/03 07:22:14;;;;;;;35.10;20.63;;;2.00;99.90;;;;;;5051061;28;20509;-69
2020/12/03 07:24:45;;;;;;;32.63;20.90;;;2.10;99.90;;;;;;5051276;28;20502;-69
2020/12/03 07:27:52;;;;;;;25.07;15.53;;;2.10;99.90;;;;;;5051036;28;20456;-69
2020/12/03 07:30:40;;;;;;;22.73;14.00;;;2.20;99.90;;;;;;5050899;28;20436;-69
2020/12/03 07:33:14;;;;;;;26.97;17.73;;;2.30;99.90;;;;;;5048327;28;20575;-69
2020/12/03 07:35:51;;;;;;;28.40;17.73;;;2.40;99.90;;;;;;5051235;28;20914;-69
2020/12/03 07:38:27;;;;;;;28.97;17.00;;;2.40;99.90;;;;;;5050994;28;20455;-69
2020/12/03 07:40:56;;;;;;;26.30;16.80;;;2.50;99.90;;;;;;5050861;28;20432;-69
2020/12/03 07:43:26;;;;;;;34.90;19.73;;;2.60;99.90;;;;;;5051096;28;20444;-69
2020/12/03 07:45:53;;;;;;;29.67;19.53;;;2.70;99.90;;;;;;5050994;28;20447;-69
2020/12/03 07:48:42;;;;;;;25.50;17.67;;;2.70;99.90;;;;;;5051629;28;20841;-69
2020/12/03 07:51:14;;;;;;;26.00;13.80;;;2.70;99.90;;;;;;5054375;28;20445;-69
2020/12/03 07:53:41;;;;;;;20.27;13.23;;;2.80;99.90;;;;;;5054377;28;20471;-69
2020/12/03 07:56:35;;;;;;;19.80;14.00;;;2.90;99.90;;;;;;5054542;28;20428;-69
2020/12/03 07:59:34;;;;;;;17.87;13.97;;;3.00;99.90;;;;;;5054382;28;20436;-69
2020/12/03 08:02:02;;;;;;;19.70;14.00;;;3.00;99.90;;;;;;5053959;28;20463;-69
2020/12/03 08:04:32;;;;;;;19.27;12.90;;;3.10;99.90;;;;;;5054121;28;20494;-69
2020/12/03 08:07:27;;;;;;;19.10;13.50;;;3.20;99.90;;;;;;5054403;28;20437;-69
2020/12/03 08:09:54;;;;;;;16.97;11.37;;;3.30;99.90;;;;;;5053993;28;20432;-69
2020/12/03 08:12:24;;;;;;;19.00;11.90;;;3.40;99.90;;;;;;5054031;28;20513;-69
2020/12/03 08:14:52;;;;;;;14.40;10.23;;;3.40;99.90;;;;;;5059086;28;20483;-69
2020/12/03 08:17:56;;;;;;;16.53;12.00;;;3.50;99.90;;;;;;5055821;28;20436;-69
2020/12/03 08:20:25;;;;;;;23.80;14.60;;;3.60;99.90;;;;;;5052790;28;20460;-69
2020/12/03 08:22:54;;;;;;;22.40;14.93;;;3.60;99.90;;;;;;5053162;28;20448;-69
2020/12/03 08:25:25;;;;;;;21.80;16.07;;;3.70;99.90;;;;;;5053532;28;20438;-69
2020/12/03 08:27:58;;;;;;;23.97;14.77;;;3.70;99.90;;;;;;5053835;28;20541;-69
2020/12/03 08:30:34;;;;;;;23.03;15.53;;;3.80;99.90;;;;;;5053883;28;20783;-70
2020/12/03 08:33:06;;;;;;;20.50;13.57;;;3.80;99.90;;;;;;5054180;28;20515;-69
2020/12/03 08:35:32;;;;;;;19.27;12.33;;;3.90;99.90;;;;;;5053900;28;20439;-72
2020/12/03 08:38:01;;;;;;;18.07;13.10;;;3.90;99.90;;;;;;5053756;28;20841;-69
2020/12/03 08:40:30;;;;;;;17.00;12.27;;;4.00;99.90;;;;;;5053508;28;20944;-69
2020/12/03 08:42:57;;;;;;;19.90;13.93;;;4.10;99.90;;;;;;5053274;28;20452;-69
2020/12/03 08:45:25;;;;;;;19.10;14.57;;;4.20;99.90;;;;;;5060543;28;20543;-69
2020/12/03 08:47:53;;;;;;;17.53;12.90;;;4.30;99.90;;;;;;5073014;28;20433;-69
2020/12/03 08:50:21;;;;;;;15.67;12.37;;;4.40;99.90;;;;;;5072132;28;20540;-69
2020/12/03 08:52:47;;;;;;;17.10;11.80;;;4.40;99.90;;;;;;5073121;28;20459;-69
2020/12/03 08:55:14;;;;;;;13.37;9.70;;;4.60;99.90;;;;;;5072784;28;20490;-69
2020/12/03 08:57:44;;;;;;;10.97;8.70;;;4.70;99.90;;;;;;5072178;28;20443;-69
2020/12/03 09:00:15;;;;;;;11.70;8.37;;;4.80;99.90;;;;;;5071841;28;20506;-69
2020/12/03 09:02:42;;;;;;;13.27;10.03;;;4.80;99.90;;;;;;5072389;28;20815;-69
2020/12/03 09:05:11;;;;;;;14.57;10.40;;;4.80;99.90;;;;;;5072065;28;20810;-70
2020/12/03 09:07:44;;;;;;;16.17;10.90;;;4.80;99.90;;;;;;5072154;28;20474;-69
2020/12/03 09:10:12;;;;;;;14.47;11.20;;;5.00;99.90;;;;;;5071748;28;20477;-69
2020/12/03 09:12:46;;;;;;;15.60;12.70;;;5.00;99.90;;;;;;5072307;28;20483;-69
2020/12/03 09:15:13;;;;;;;15.60;12.20;;;5.20;99.90;;;;;;5072499;28;20473;-69
2020/12/03 09:17:42;;;;;;;15.90;11.77;;;5.20;99.90;;;;;;5073628;28;20435;-69
2020/12/03 09:20:10;;;;;;;20.50;13.70;;;5.30;99.90;;;;;;5073369;28;20431;-70
2020/12/03 09:22:40;;;;;;;16.00;12.87;;;5.30;99.90;;;;;;5085639;28;20501;-69
2020/12/03 09:25:08;;;;;;;17.50;11.73;;;5.20;99.90;;;;;;5072595;28;20489;-69
2020/12/03 09:27:39;;;;;;;13.33;10.30;;;5.10;99.90;;;;;;5072626;28;20524;-69
2020/12/03 09:30:10;;;;;;;14.13;11.43;;;5.00;99.90;;;;;;5072316;28;20459;-69
2020/12/03 09:32:39;;;;;;;16.30;11.80;;;5.00;99.90;;;;;;5073290;28;20470;-69
2020/12/03 09:35:07;;;;;;;12.93;10.57;;;5.10;99.90;;;;;;5072339;28;20513;-69
2020/12/03 09:37:34;;;;;;;16.93;11.63;;;5.20;99.90;;;;;;5071883;28;20967;-70
2020/12/03 09:40:02;;;;;;;12.60;9.20;;;5.20;99.90;;;;;;5054263;28;20515;-69
2020/12/03 09:42:35;;;;;;;12.93;9.80;;;5.20;99.90;;;;;;5051179;28;20479;-69
2020/12/03 09:45:07;;;;;;;12.30;9.17;;;5.20;99.90;;;;;;5051387;28;20440;-69
2020/12/03 09:47:35;;;;;;;13.93;9.83;;;5.20;99.90;;;;;;5053149;28;20518;-69
2020/12/03 09:50:02;;;;;;;11.43;9.13;;;5.20;99.90;;;;;;5051554;28;20463;-69
2020/12/03 09:52:30;;;;;;;11.80;9.33;;;5.30;99.90;;;;;;5051040;28;20463;-69
2020/12/03 09:54:56;;;;;;;13.13;10.67;;;5.50;99.90;;;;;;5051273;28;20482;-69
2020/12/03 09:57:25;;;;;;;13.20;10.13;;;5.50;99.90;;;;;;5051574;28;20433;-69
2020/12/03 09:59:54;;;;;;;13.60;10.47;;;5.50;99.90;;;;;;5050803;28;20432;-69
2020/12/03 10:03:09;;;;;;;15.00;10.57;;;5.60;99.90;;;;;;5050678;28;20452;-69
2020/12/03 10:05:49;;;;;;;16.50;12.00;;;5.70;99.90;;;;;;4990497;28;20442;-69
2020/12/03 10:08:56;;;;;;;20.93;13.47;;;5.90;99.90;;;;;;5052048;28;20472;-69
2020/12/03 10:11:43;;;;;;;19.43;15.53;;;5.80;99.90;;;;;;5057267;28;20936;-69
2020/12/03 10:14:39;;;;;;;16.13;13.30;;;5.60;99.90;;;;;;5071092;28;20521;-70
2020/12/03 10:17:07;;;;;;;18.73;12.40;;;5.50;99.90;;;;;;5071657;28;20451;-70
2020/12/03 10:19:39;;;;;;;16.30;12.87;;;5.40;99.90;;;;;;5072124;28;20438;-70
2020/12/03 10:22:10;;;;;;;15.30;11.87;;;5.40;99.90;;;;;;5072688;28;20475;-69
2020/12/03 10:24:43;;;;;;;18.43;13.53;;;5.40;99.90;;;;;;5072331;28;20450;-69
2020/12/03 10:27:18;;;;;;;15.00;11.93;;;5.40;99.90;;;;;;5072130;28;20826;-69
2020/12/03 10:29:52;;;;;;;13.73;11.57;;;5.40;99.90;;;;;;5071677;28;20947;-69
2020/12/03 10:32:22;;;;;;;15.30;11.93;;;5.40;99.90;;;;;;5067731;28;20879;-69
2020/12/03 10:34:49;;;;;;;16.50;12.03;;;5.50;99.90;;;;;;5053040;28;20475;-69
2020/12/03 10:37:43;;;;;;;14.57;11.93;;;5.60;99.90;;;;;;5051579;28;20435;-70
2020/12/03 10:40:16;;;;;;;14.47;11.90;;;5.70;99.90;;;;;;5049039;28;20440;-69
2020/12/03 10:42:47;;;;;;;15.93;11.90;;;5.70;99.90;;;;;;5050796;28;20456;-69
2020/12/03 10:45:19;;;;;;;15.40;11.57;;;5.80;99.90;;;;;;5050195;28;20428;-69
2020/12/03 10:47:49;;;;;;;16.07;11.90;;;5.80;99.90;;;;;;5050236;28;20432;-69
2020/12/03 10:50:18;;;;;;;13.70;11.10;;;5.90;99.90;;;;;;5049797;28;20463;-69
2020/12/03 10:52:45;;;;;;;13.30;10.93;;;6.00;99.90;;;;;;5049741;28;20976;-69
2020/12/03 10:55:17;;;;;;;13.93;10.50;;;5.90;99.90;;;;;;5051038;28;20472;-69
2020/12/03 10:57:53;;;;;;;17.13;10.70;;;5.80;99.90;;;;;;5051320;28;20527;-69
2020/12/03 11:00:22;;;;;;;13.90;10.80;;;5.80;99.90;;;;;;5054259;28;20454;-69
2020/12/03 11:02:52;;;;;;;14.60;11.67;;;5.90;99.90;;;;;;5062561;28;20807;-69
2020/12/03 11:05:19;;;;;;;13.50;10.80;;;6.10;99.90;;;;;;5070113;28;20500;-69
2020/12/03 11:07:53;;;;;;;16.23;10.10;;;6.00;99.90;;;;;;5055329;28;20627;-69
2020/12/03 11:10:20;;;;;;;11.83;10.37;;;6.00;99.90;;;;;;5070820;28;20446;-69
2020/12/03 11:12:51;;;;;;;14.80;11.40;;;5.90;99.90;;;;;;5063201;28;20502;-70
2020/12/03 11:15:21;;;;;;;15.20;10.93;;;5.90;99.90;;;;;;5070942;28;20535;-70
2020/12/03 11:17:54;;;;;;;13.80;10.93;;;5.70;99.90;;;;;;5071747;28;20431;-69
2020/12/03 11:20:23;;;;;;;12.17;9.70;;;5.80;99.90;;;;;;5071752;28;20514;-69
2020/12/03 11:23:02;;;;;;;16.27;10.60;;;5.80;99.90;;;;;;5073323;28;20526;-69
2020/12/03 11:25:30;;;;;;;14.20;10.03;;;5.90;99.90;;;;;;5074923;28;20471;-69
2020/12/03 11:28:03;;;;;;;13.43;8.63;;;6.00;99.90;;;;;;5074557;28;20446;-69
2020/12/03 11:30:31;;;;;;;12.60;10.27;;;5.90;99.90;;;;;;5074933;28;20436;-69
2020/12/03 11:32:59;;;;;;;15.13;9.20;;;5.80;99.90;;;;;;5074584;28;20466;-69
2020/12/03 11:35:27;;;;;;;12.53;10.57;;;5.70;99.90;;;;;;5071914;28;20561;-69
2020/12/03 11:37:54;;;;;;;12.73;10.67;;;5.60;99.90;;;;;;5066879;28;20950;-69
2020/12/03 11:40:32;;;;;;;11.57;8.40;;;5.50;99.90;;;;;;5073221;28;20439;-69
2020/12/03 11:43:13;;;;;;;13.10;9.30;;;5.40;99.90;;;;;;5073547;28;20451;-69
2020/12/03 11:48:37;;;;;;;11.00;8.37;;;5.30;99.90;;;;;;5071160;28;20435;-69
2020/12/03 11:51:04;;;;;;;13.10;8.87;;;5.40;99.90;;;;;;5072928;28;20447;-69
2020/12/03 11:53:31;;;;;;;10.23;7.70;;;5.30;99.90;;;;;;5072989;28;20431;-69
2020/12/03 11:55:58;;;;;;;10.40;7.37;;;5.30;99.90;;;;;;5073575;28;20506;-69
2020/12/03 11:58:30;;;;;;;9.13;7.87;;;5.30;99.90;;;;;;5073170;28;20431;-69
2020/12/03 12:01:11;;;;;;;9.07;7.07;;;5.30;99.90;;;;;;5073085;28;20474;-69
2020/12/03 12:03:39;;;;;;;10.20;8.73;;;5.30;99.90;;;;;;5068611;28;20454;-69
2020/12/03 12:06:12;;;;;;;9.87;7.13;;;5.30;99.90;;;;;;5073342;28;20467;-69
2020/12/03 12:08:43;;;;;;;10.60;6.80;;;5.30;99.90;;;;;;5073927;28;20434;-69
2020/12/03 12:11:14;;;;;;;12.30;7.60;;;5.30;99.90;;;;;;5073618;28;20477;-69
2020/12/03 12:13:41;;;;;;;9.87;7.00;;;5.40;99.90;;;;;;5073015;28;20427;-69
2020/12/03 12:16:12;;;;;;;12.43;8.30;;;5.40;99.90;;;;;;5073758;28;20436;-70
2020/12/03 12:18:39;;;;;;;8.20;6.13;;;5.40;99.90;;;;;;5074175;28;20444;-69
2020/12/03 12:21:07;;;;;;;7.93;6.20;;;5.40;99.90;;;;;;5074030;28;20824;-69
2020/12/03 12:23:34;;;;;;;8.40;6.73;;;5.30;99.90;;;;;;5073879;28;20443;-69
2020/12/03 12:26:01;;;;;;;7.40;6.00;;;5.40;99.90;;;;;;5065649;28;20862;-69
2020/12/03 12:28:28;;;;;;;8.13;6.87;;;5.40;99.90;;;;;;5071325;28;21009;-71
2020/12/03 12:30:54;;;;;;;8.33;6.50;;;5.60;99.90;;;;;;5071847;28;20444;-71
2020/12/03 12:33:22;;;;;;;14.40;7.60;;;5.60;99.90;;;;;;5071601;28;20434;-70
2020/12/03 12:35:48;;;;;;;8.07;6.23;;;5.60;99.90;;;;;;5071607;28;20478;-70
2020/12/03 12:38:15;;;;;;;8.93;6.40;;;5.60;99.90;;;;;;5073041;28;20443;-70
2020/12/03 12:40:42;;;;;;;9.20;7.20;;;5.50;99.90;;;;;;5072551;28;20431;-70
2020/12/03 12:43:08;;;;;;;7.63;6.10;;;5.60;99.90;;;;;;5072478;28;20463;-70
2020/12/03 12:45:35;;;;;;;10.73;7.60;;;5.60;99.90;;;;;;5072732;28;20444;-70
2020/12/03 12:48:01;;;;;;;7.33;6.03;;;5.60;99.90;;;;;;5072463;28;20431;-70
2020/12/03 12:50:29;;;;;;;10.03;7.23;;;5.60;99.90;;;;;;5072783;28;20431;-70
2020/12/03 12:52:55;;;;;;;8.90;7.27;;;5.60;99.90;;;;;;5073262;28;20906;-70
2020/12/03 12:55:22;;;;;;;9.47;7.27;;;5.50;99.90;;;;;;5072241;28;20471;-70
2020/12/03 12:57:48;;;;;;;10.17;6.70;;;5.50;99.90;;;;;;5072645;28;20435;-70
2020/12/03 13:00:15;;;;;;;9.37;6.93;;;5.60;99.90;;;;;;5071872;28;20439;-70
2020/12/03 13:02:41;;;;;;;10.90;7.63;;;5.60;99.90;;;;;;5072452;28;20467;-70
2020/12/03 13:05:08;;;;;;;10.07;8.30;;;5.70;99.90;;;;;;5071821;28;20500;-70
2020/12/03 13:07:36;;;;;;;9.43;7.20;;;5.80;99.90;;;;;;5071725;28;20439;-70
2020/12/03 13:10:02;;;;;;;9.30;8.00;;;5.80;99.90;;;;;;5071374;28;20451;-71